SBRF/REC METAR and TAF weather

Enter ICAO airport designator
Station Type Date Time Source
SBRF METAR 2018/12/15 02:00 UTC NOAA

SBRF 150200Z 13011KT 9999 BKN023 27/21 Q1016


Station Type Date Time Source
SBRF Decoded METAR 2018/12/15 02:00 UTC NOAA

Recife Aeroporto , Brazil (SBRF) 08-04S 034-51W
Dec 14, 2018 - 09:00 PM EST / 2018.12.15 0200 UTC
Wind: from the SE (130 degrees) at 13 MPH (11 KT):0
Visibility: greater than 7 mile(s):0
Sky conditions: mostly cloudy
Temperature: 80 F (27 C)
Dew Point: 69 F (21 C)
Relative Humidity: 69%
Pressure (altimeter): 30.00 in. Hg (1016 hPa)
ob: SBRF 150200Z 13011KT 9999 BKN023 27/21 Q1016
cycle: 2

Station Type Date Time Source
SBRF TAF 2018/12/15 00:00 UTC NOAA

TAF SBRF 142200Z 1500/1524 14008KT 8000 SCT022 TN26/1507Z TX30/1515Z
BECMG 1511/1513 13013KT
BECMG 1521/1522 14008KT
RMK PEI


Example: see airport list